Floweree, MT

20:15 MDT le 22 septembre 2014 (GMT -0600)
Helena Regional | Change Station
CLOSE
Current Station
Aéroport
Location: Helena,
Altitude: 3865 ft
Stations météo à proximité

Alt. 3865 ft 46.60 °N, 111.99 °W | Updated 22 minutes ago

Nuageux
Nuageux
66 ° F
Paraît 66 ° F
N
7
Vent Variable Vent de Ouest

Aujourd'hui
Haut(e) -- | Bas -- ° F
--% Risque de précip.
Hier
Haut(e) -- | Bas -- ° F
Precip. -- pouce
7:11 AM 7:22 PM
Lune descendante, 1% visible
Pression 29.95 pouce
Visibilité 10.0 Miles terrestres
Nuages Ciel dégagé
Point de rosée 52 ° F
Humidité 60%
Précipitations 0.00 pouce
Profondeur de la couche neigeuse 0 in , 0 in , 0 in
UV 0 sur 12
Pollen 7.00 sur 12
Qualité de l'air Non disponible.
Flu Activity Non disponible.
METAR KHLN 230153Z 28006KT 10SM CLR 19/11 A2996 RMK AO2 SLP142 T01890111 $

More Conditions Fewer Conditions

Pression 29.95 pouce
Visibilité 10.0 Miles terrestres
Nuages Ciel dégagé
Point de rosée 52 ° F
Humidité 60%
Précipitations 0.00 pouce
Profondeur de la couche neigeuse 0 in , 0 in , 0 in
UV 0 sur 12
Pollen 7.00 sur 12
Qualité de l'air Non disponible.
Flu Activity Non disponible.
METAR KHLN 230153Z 28006KT 10SM CLR 19/11 A2996 RMK AO2 SLP142 T01890111 $

More Conditions Fewer Conditions

10-Day Weather Forecast

Almanac

Astronomie

Sep. 22, 2014 Lever Coucher
Temps réel 07:11 MDT 19:22 MDT
Crépuscule civil 06:40 MDT 19:53 MDT
Crépuscule nautique 06:04 MDT 20:29 MDT
Crépuscule astronomique 05:27 MDT 21:06 MDT
Lune 05:39 MDT (9/22) 18:34 MDT (9/22)
Durée de lumière visible 13h 12m
Longueur du jour
12h 10m
Tomorrow will be 3m 24s shorter.
Lune descendante, 1% of the Moon is Illuminated
Aujourd'hui
Lune descendante
Sep 24
Nouveau
Oct 1
Premier quartier
Oct 8
Pleine lune
Oct 15
Dernier quartier

Extrêmes aujourd'hui

State Highs State Lows

Community

WunderPhotos

Upload Photos

1,755,587 Photos téléchargées !

Nearby

Épaisseur de neige

Station Depth Altitude
Mule Creek 0 in 8300 ft
Nevada Ridge 0 in 7020 ft
Northeast Entrance 0 in 7350 ft
Wood Creek 0 in 5960 ft
Onion Park 0 in 7410 ft

Activité sismique

Ville Distance Mag. Time & Date
No recent earthquake activity has been reported nearby.
Minimum magnitude displayed is 2.5.

Températures des eaux côtières

Lieu Température
Aucun rapport de station

Stations météo à proximité